Time;durP1;ratioP1;P1;durP2;ratioP2;P2;SDS_P1;SDS_P2;PMS_P1;PMS_P2;Temp;Humidity;BMP_temperature;BMP_pressure;BME280_temperature;BME280_humidity;BME280_pressure;Samples;Min_cycle;Max_cycle;Signal;HPM_P1;HPM_P2
2022/07/13 00:01:14;;;;;;;14.65;12.00;;;;;;;24.77;52.61;102060.72;4986668;28;114458;-69
2022/07/13 00:03:42;;;;;;;15.48;12.15;;;;;;;24.72;53.09;102056.69;4987508;28;125078;-68
2022/07/13 00:06:09;;;;;;;16.08;12.27;;;;;;;24.69;52.81;102057.81;4989963;28;123561;-68
2022/07/13 00:08:36;;;;;;;17.45;12.07;;;;;;;24.67;52.79;102063.34;4989036;28;114534;-68
2022/07/13 00:11:03;;;;;;;12.73;11.20;;;;;;;24.67;52.66;102065.19;4988375;28;114192;-68
2022/07/13 00:13:30;;;;;;;16.58;11.23;;;;;;;24.67;52.64;102066.06;4987652;28;124127;-67
2022/07/13 00:15:58;;;;;;;20.17;11.52;;;;;;;24.68;52.56;102066.94;4969821;28;123614;-68
2022/07/13 00:18:26;;;;;;;12.30;10.63;;;;;;;24.67;52.50;102066.06;4986133;28;115235;-68
2022/07/13 00:20:53;;;;;;;12.93;10.90;;;;;;;24.67;52.55;102065.19;4990532;28;114812;-68
2022/07/13 00:23:20;;;;;;;13.52;11.13;;;;;;;24.66;52.79;102063.50;4987063;28;125571;-68
2022/07/13 00:25:47;;;;;;;16.08;11.88;;;;;;;24.66;53.06;102067.06;4987241;28;125505;-68
2022/07/13 00:28:16;;;;;;;13.15;11.25;;;;;;;24.65;53.24;102062.63;4969196;28;114293;-68
2022/07/13 00:30:43;;;;;;;14.25;11.10;;;;;;;24.64;52.95;102052.78;4972523;28;112758;-68
2022/07/13 00:33:10;;;;;;;15.20;10.82;;;;;;;24.64;52.92;102039.25;4988759;28;124560;-68
2022/07/13 00:35:37;;;;;;;13.15;11.10;;;;;;;24.63;53.00;102037.50;4976072;28;123909;-68
2022/07/13 00:38:04;;;;;;;15.38;10.50;;;;;;;24.62;52.97;102046.66;4987178;28;114211;-67
2022/07/13 00:40:32;;;;;;;16.38;11.18;;;;;;;24.59;52.80;102030.66;4989814;28;114848;-67
2022/07/13 00:42:59;;;;;;;13.20;10.55;;;;;;;24.58;53.01;102018.09;4971344;28;122970;-67
2022/07/13 00:45:26;;;;;;;14.95;10.55;;;;;;;24.53;53.06;102001.38;4989102;28;124073;-68
2022/07/13 00:47:55;;;;;;;13.80;10.15;;;;;;;24.47;53.10;102007.31;4989133;28;114585;-67
2022/07/13 00:50:23;;;;;;;12.65;10.48;;;;;;;24.40;53.11;102015.09;4968733;28;113398;-67
2022/07/13 00:52:50;;;;;;;12.98;10.57;;;;;;;24.35;53.20;102008.34;4986911;28;124015;-67
2022/07/13 00:55:18;;;;;;;13.02;10.13;;;;;;;24.33;53.34;102000.34;4955587;28;123526;-68
2022/07/13 00:57:47;;;;;;;12.38;10.27;;;;;;;24.32;53.39;101995.06;4971335;28;113258;-71
2022/07/13 01:00:14;;;;;;;13.20;9.65;;;;;;;24.29;53.47;101997.03;4989722;28;114165;-68
2022/07/13 01:02:44;;;;;;;11.70;9.57;;;;;;;24.28;53.62;101994.47;4971539;28;123269;-68
2022/07/13 01:05:13;;;;;;;13.77;10.18;;;;;;;24.25;53.64;102001.00;4986774;28;124786;-68
2022/07/13 01:07:41;;;;;;;12.18;9.95;;;;;;;24.25;53.45;101995.59;4983374;28;115111;-68
2022/07/13 01:10:10;;;;;;;12.32;10.02;;;;;;;24.24;53.53;101999.31;4986752;28;114907;-68
2022/07/13 01:12:39;;;;;;;12.15;9.93;;;;;;;24.23;53.40;101992.16;4986885;28;124512;-67
2022/07/13 01:15:07;;;;;;;10.50;9.35;;;;;;;24.23;53.45;101986.75;4955491;28;122896;-67
2022/07/13 01:17:35;;;;;;;13.25;10.15;;;;;;;24.22;53.57;101985.03;4966741;28;115077;-68
2022/07/13 01:20:04;;;;;;;14.27;10.13;;;;;;;24.21;53.58;101972.47;4973319;28;114074;-68
2022/07/13 01:22:33;;;;;;;11.23;9.38;;;;;;;24.16;53.51;101980.13;4974757;28;123054;-68
2022/07/13 01:25:03;;;;;;;11.68;9.15;;;;;;;24.14;53.65;101976.69;4975153;28;124279;-68
2022/07/13 01:27:35;;;;;;;12.55;9.07;;;;;;;24.11;53.73;101974.25;4987518;28;114344;-69
2022/07/13 01:30:04;;;;;;;12.35;9.88;;;;;;;24.08;53.78;101971.81;4991781;28;113878;-68
2022/07/13 01:32:50;;;;;;;12.18;8.90;;;;;;;24.04;53.74;101960.38;4987717;28;124414;-68
2022/07/13 01:35:21;;;;;;;12.63;9.15;;;;;;;24.01;53.72;101965.19;4961166;28;122887;-68
2022/07/13 01:37:48;;;;;;;10.27;9.13;;;;;;;23.95;53.89;101966.56;4970455;28;115231;-68
2022/07/13 01:40:17;;;;;;;13.48;9.23;;;;;;;23.93;54.03;101967.69;4972705;28;113926;-68
2022/07/13 01:42:48;;;;;;;11.55;8.82;;;;;;;23.89;54.06;101967.09;4974136;28;123328;-68
2022/07/13 01:45:19;;;;;;;12.13;8.25;;;;;;;23.85;54.13;101966.47;4973997;28;122976;-68
2022/07/13 01:47:48;;;;;;;11.25;8.40;;;;;;;23.83;54.38;101973.88;4971556;28;113532;-67
2022/07/13 01:50:18;;;;;;;10.38;7.72;;;;;;;23.82;54.39;101961.31;4972741;28;112743;-68
2022/07/13 01:52:47;;;;;;;11.23;7.50;;;;;;;23.83;54.23;101963.03;4990181;28;123120;-67
2022/07/13 01:55:15;;;;;;;10.23;7.53;;;;;;;23.85;54.17;101966.47;4972772;28;123185;-67
2022/07/13 01:57:44;;;;;;;8.45;7.05;;;;;;;23.86;54.13;101957.34;4957027;28;114480;-67
2022/07/13 02:00:14;;;;;;;10.25;7.47;;;;;;;23.88;54.09;101955.41;4973831;28;114251;-67
2022/07/13 02:02:44;;;;;;;11.32;7.40;;;;;;;23.89;54.09;101946.28;4973835;28;123195;-68
2022/07/13 02:05:15;;;;;;;10.20;7.30;;;;;;;23.89;53.87;101951.69;4973867;28;122999;-67
2022/07/13 02:07:42;;;;;;;8.15;6.93;;;;;;;23.89;53.92;101946.28;4988964;28;113349;-68
2022/07/13 02:10:11;;;;;;;7.85;6.82;;;;;;;23.89;53.90;101950.84;4973555;28;113217;-67
2022/07/13 02:12:40;;;;;;;10.25;6.63;;;;;;;23.90;53.71;101942.59;4973487;28;123250;-67
2022/07/13 02:15:09;;;;;;;9.27;6.50;;;;;;;23.92;53.69;101938.91;4988238;28;123239;-67
2022/07/13 02:17:39;;;;;;;8.88;6.78;;;;;;;23.93;53.58;101940.63;4948728;28;113558;-69
2022/07/13 02:20:08;;;;;;;11.50;6.85;;;;;;;23.95;53.80;101941.34;4970062;28;113266;-66
2022/07/13 02:22:44;;;;;;;9.32;6.50;;;;;;;23.96;53.56;101945.75;4988955;28;124224;-66
2022/07/13 02:25:15;;;;;;;8.45;7.05;;;;;;;23.97;53.43;101942.09;4987241;28;124297;-67
2022/07/13 02:27:43;;;;;;;9.10;6.55;;;;;;;23.96;53.44;101930.41;4973272;28;113755;-67
2022/07/13 02:30:12;;;;;;;8.85;6.18;;;;;;;23.98;53.40;101941.06;4973801;28;112883;-67
2022/07/13 02:32:40;;;;;;;8.27;6.28;;;;;;;23.98;53.36;101938.38;4970952;28;123167;-67
2022/07/13 02:35:08;;;;;;;9.27;6.20;;;;;;;23.98;53.08;101933.84;4987399;28;124094;-67
2022/07/13 02:37:36;;;;;;;8.18;6.38;;;;;;;23.99;53.03;101934.69;4973514;28;113874;-67
2022/07/13 02:40:06;;;;;;;9.98;6.35;;;;;;;24.00;53.10;101931.00;4991356;28;114280;-68
2022/07/13 02:42:33;;;;;;;8.07;6.38;;;;;;;24.00;52.99;101931.00;4973570;28;123004;-67
2022/07/13 02:45:01;;;;;;;6.75;6.05;;;;;;;24.02;53.14;101929.03;4964865;28;123290;-68
2022/07/13 02:47:28;;;;;;;6.95;6.15;;;;;;;24.02;53.10;101923.63;4955234;28;114375;-68
2022/07/13 02:49:55;;;;;;;8.75;6.38;;;;;;;24.00;53.03;101926.44;4961995;28;113914;-67
2022/07/13 02:52:23;;;;;;;11.75;7.03;;;;;;;24.00;53.08;101926.44;4972084;28;123277;-67
2022/07/13 02:54:51;;;;;;;8.73;6.38;;;;;;;23.99;52.96;101923.88;4964018;28;123706;-67
2022/07/13 02:57:18;;;;;;;9.50;6.13;;;;;;;24.00;52.96;101917.47;4957125;28;114075;-67
2022/07/13 02:59:52;;;;;;;8.93;6.18;;;;;;;23.98;53.03;101911.31;4972418;28;113007;-67
2022/07/13 03:02:19;;;;;;;7.00;6.25;;;;;;;23.97;53.01;101909.59;4989792;28;124086;-67
2022/07/13 03:04:47;;;;;;;9.27;6.60;;;;;;;23.94;53.29;101915.25;4973226;28;123565;-67
2022/07/13 03:07:15;;;;;;;9.13;7.03;;;;;;;23.92;53.08;101903.72;4945545;28;113555;-67
2022/07/13 03:09:42;;;;;;;9.15;6.72;;;;;;;23.89;53.28;101897.59;4962845;28;112856;-67
2022/07/13 03:12:10;;;;;;;8.80;6.18;;;;;;;23.88;53.05;101895.88;4982785;28;123341;-67
2022/07/13 03:14:38;;;;;;;11.13;5.78;;;;;;;23.87;53.24;101899.56;4962663;28;123025;-67
2022/07/13 03:17:06;;;;;;;9.15;6.43;;;;;;;23.86;53.20;101908.66;4989956;28;114376;-67
2022/07/13 03:19:34;;;;;;;12.02;6.57;;;;;;;23.85;53.04;101912.38;4987888;28;115028;-68
2022/07/13 03:22:05;;;;;;;7.88;6.30;;;;;;;23.86;53.32;101914.06;4957180;28;123675;-67
2022/07/13 03:24:34;;;;;;;7.57;6.13;;;;;;;23.86;53.14;101913.22;4984408;28;122969;-67
2022/07/13 03:27:02;;;;;;;8.93;6.32;;;;;;;23.88;53.16;101901.28;4972770;28;113817;-67
2022/07/13 03:29:30;;;;;;;7.07;6.35;;;;;;;23.87;53.22;101894.16;4983253;28;113005;-67
2022/07/13 03:31:58;;;;;;;10.13;6.07;;;;;;;23.88;53.24;101901.28;4988062;28;125493;-67
2022/07/13 03:34:27;;;;;;;10.98;6.00;;;;;;;23.85;53.18;101890.72;4988979;28;124152;-67
2022/07/13 03:36:55;;;;;;;8.63;6.88;;;;;;;23.85;53.32;101879.91;4971284;28;114803;-67
2022/07/13 03:39:23;;;;;;;10.02;6.55;;;;;;;23.83;53.20;101875.63;4963154;28;114279;-67
2022/07/13 03:41:51;;;;;;;9.85;7.05;;;;;;;23.81;53.47;101867.63;4971540;28;123848;-68
2022/07/13 03:44:18;;;;;;;8.95;6.57;;;;;;;23.79;53.74;101863.31;4971667;28;122751;-67
2022/07/13 03:46:47;;;;;;;9.13;7.05;;;;;;;23.77;53.58;101865.25;4964571;28;113497;-67
2022/07/13 03:49:15;;;;;;;10.65;7.25;;;;;;;23.75;53.72;101868.09;4971393;28;113142;-68
2022/07/13 03:51:42;;;;;;;11.65;6.80;;;;;;;23.75;53.64;101867.25;4972819;28;123914;-67
2022/07/13 03:54:10;;;;;;;9.98;7.25;;;;;;;23.75;53.58;101868.09;4956733;28;123241;-67
2022/07/13 03:56:39;;;;;;;10.80;7.35;;;;;;;23.75;53.52;101868.09;4973393;28;114015;-67
2022/07/13 03:59:07;;;;;;;11.80;7.53;;;;;;;23.77;53.42;101866.16;4971576;28;113002;-67
2022/07/13 04:01:35;;;;;;;11.98;7.70;;;;;;;23.80;53.33;101865.91;4971611;28;123167;-68
2022/07/13 04:04:03;;;;;;;11.68;7.20;;;;;;;23.80;53.15;101865.91;4972302;28;122788;-68
2022/07/13 04:06:31;;;;;;;10.43;7.35;;;;;;;23.81;52.94;101867.63;4985922;28;113158;-67
2022/07/13 04:08:59;;;;;;;10.43;6.95;;;;;;;23.82;53.02;101869.31;4955542;28;113479;-67
2022/07/13 04:11:26;;;;;;;10.43;7.13;;;;;;;23.83;52.89;101871.06;4960077;28;123767;-68
2022/07/13 04:13:54;;;;;;;8.88;6.70;;;;;;;23.87;52.55;101861.69;4987690;28;123980;-67
2022/07/13 04:16:22;;;;;;;9.90;6.85;;;;;;;23.90;52.68;101865.97;4971773;28;113287;-67
2022/07/13 04:18:49;;;;;;;10.13;6.65;;;;;;;23.92;52.48;101868.53;4971784;28;113787;-67
2022/07/13 04:21:17;;;;;;;8.52;6.57;;;;;;;23.95;52.34;101862.88;4970684;28;123340;-67
2022/07/13 04:23:44;;;;;;;8.52;6.10;;;;;;;23.98;52.17;101862.59;4972186;28;123075;-68
2022/07/13 04:26:12;;;;;;;9.50;6.07;;;;;;;24.01;52.11;101859.63;4971790;28;114556;-67
2022/07/13 04:28:39;;;;;;;9.63;6.03;;;;;;;24.05;51.95;101861.09;4971921;28;114166;-67
2022/07/13 04:31:12;;;;;;;8.43;5.22;;;;;;;24.07;51.78;101850.97;4969763;28;123934;-67
2022/07/13 04:33:41;;;;;;;7.38;5.35;;;;;;;24.09;51.60;101851.69;4971960;28;123449;-67
2022/07/13 04:36:11;;;;;;;7.88;5.30;;;;;;;24.13;51.50;101850.47;4956904;28;113874;-67
2022/07/13 04:38:40;;;;;;;12.05;5.47;;;;;;;24.14;51.45;101841.34;4971657;28;113026;-67
2022/07/13 04:41:07;;;;;;;6.07;5.22;;;;;;;24.19;51.10;101839.09;4971561;28;123263;-67
2022/07/13 04:43:37;;;;;;;7.55;4.80;;;;;;;24.22;51.16;101844.25;4971972;28;122905;-66
2022/07/13 04:46:08;;;;;;;7.53;4.90;;;;;;;24.26;51.12;101851.13;4972244;28;113959;-66
2022/07/13 04:48:36;;;;;;;7.68;5.00;;;;;;;24.32;51.04;101848.84;4954964;28;112990;-66
2022/07/13 04:51:03;;;;;;;6.15;4.55;;;;;;;24.36;50.81;101844.91;4971053;28;123370;-66
2022/07/13 04:53:30;;;;;;;6.95;4.45;;;;;;;24.41;50.81;101839.91;4978027;28;122996;-66
2022/07/13 04:55:57;;;;;;;5.75;4.60;;;;;;;24.45;50.60;101838.66;4959185;28;114498;-66
2022/07/13 04:58:26;;;;;;;5.22;4.35;;;;;;;24.49;50.45;101831.97;4974138;28;113178;-66
2022/07/13 05:00:53;;;;;;;6.88;4.50;;;;;;;24.55;50.03;101834.16;4959084;28;123710;-66
2022/07/13 05:03:40;;;;;;;7.13;5.22;;;;;;;24.59;50.25;101832.91;4991212;28;124692;-66
2022/07/13 05:06:08;;;;;;;7.50;4.50;;;;;;;24.64;50.09;101838.78;4975350;28;113600;-66
2022/07/13 05:08:35;;;;;;;5.38;4.10;;;;;;;24.70;49.83;101836.53;4974354;28;113077;-67
2022/07/13 05:11:02;;;;;;;7.63;4.18;;;;;;;24.73;49.79;101836.22;4974432;28;123469;-67
2022/07/13 05:13:29;;;;;;;6.43;4.00;;;;;;;24.78;49.65;101833.97;4975103;28;122542;-67
2022/07/13 05:15:59;;;;;;;5.13;4.10;;;;;;;24.82;49.67;101835.41;4974573;28;114792;-67
2022/07/13 05:18:27;;;;;;;5.38;3.95;;;;;;;24.87;49.58;101833.13;4974278;28;114033;-67
2022/07/13 05:20:59;;;;;;;5.97;3.75;;;;;;;24.92;49.45;101833.59;4973844;28;123158;-67
2022/07/13 05:23:27;;;;;;;6.28;3.70;;;;;;;24.96;49.11;101835.03;4990293;28;123892;-67
2022/07/13 05:25:54;;;;;;;6.20;3.60;;;;;;;25.01;49.05;101829.16;4975688;28;113695;-66
2022/07/13 05:28:22;;;;;;;4.80;3.65;;;;;;;25.04;49.07;101829.75;4973979;28;113569;-67
2022/07/13 05:30:50;;;;;;;5.18;3.50;;;;;;;25.09;48.76;101831.19;4974527;28;124199;-66
2022/07/13 05:33:19;;;;;;;6.82;3.20;;;;;;;25.14;48.83;101828.91;4975266;28;123431;-66
2022/07/13 05:35:48;;;;;;;5.32;3.60;;;;;;;25.21;48.89;101835.50;4974456;28;113493;-66
2022/07/13 05:38:15;;;;;;;6.70;3.92;;;;;;;25.27;48.54;101834.09;4973859;28;113342;-66
2022/07/13 05:40:44;;;;;;;6.45;4.10;;;;;;;25.32;48.85;101827.25;4958071;28;123182;-66
2022/07/13 05:43:14;;;;;;;5.10;3.42;;;;;;;25.37;48.40;101830.41;4988229;28;123006;-66
2022/07/13 05:45:41;;;;;;;5.00;3.50;;;;;;;25.44;48.30;101834.25;4973570;28;113361;-66
2022/07/13 05:48:08;;;;;;;4.70;3.70;;;;;;;25.51;48.32;101847.25;4991835;28;114025;-66
2022/07/13 05:50:40;;;;;;;6.00;3.80;;;;;;;25.55;48.25;101854.09;4973819;28;122303;-65
2022/07/13 05:53:07;;;;;;;4.15;3.30;;;;;;;25.59;48.02;101856.38;4971806;28;122764;-65
2022/07/13 05:55:35;;;;;;;5.55;3.60;;;;;;;25.63;47.86;101862.38;4979114;28;113895;-66
2022/07/13 05:58:02;;;;;;;7.35;3.65;;;;;;;25.68;47.96;101859.25;4973263;28;112921;-65
2022/07/13 06:00:30;;;;;;;5.75;3.45;;;;;;;25.71;47.84;101865.25;4973588;28;125571;-66
2022/07/13 06:02:57;;;;;;;5.35;3.88;;;;;;;25.75;47.77;101861.25;4988328;28;124020;-66
2022/07/13 06:05:25;;;;;;;6.63;3.80;;;;;;;25.78;47.69;101866.38;4988706;28;115095;-66
2022/07/13 06:07:52;;;;;;;5.93;3.40;;;;;;;25.79;47.59;101854.53;4989145;28;114818;-66
2022/07/13 06:10:20;;;;;;;6.35;3.80;;;;;;;25.81;47.43;101855.22;4973619;28;126691;-66
2022/07/13 06:12:47;;;;;;;10.77;3.67;;;;;;;25.84;47.78;101854.94;4988469;28;126056;-66
2022/07/13 06:15:14;;;;;;;5.20;3.97;;;;;;;25.87;47.70;101870.09;4992108;28;114370;-66
2022/07/13 06:17:41;;;;;;;6.40;4.60;;;;;;;25.92;47.91;101867.84;4970913;28;114005;-66
2022/07/13 06:20:09;;;;;;;6.93;4.43;;;;;;;25.96;47.85;101862.97;4991421;28;124114;-66
2022/07/13 06:22:36;;;;;;;6.55;4.57;;;;;;;26.01;47.45;101863.38;4989614;28;123930;-66
2022/07/13 06:25:03;;;;;;;5.43;4.35;;;;;;;26.05;47.53;101862.09;4974268;28;113332;-66
2022/07/13 06:27:31;;;;;;;7.00;4.43;;;;;;;26.11;47.75;101866.94;4989040;28;114198;-65
2022/07/13 06:29:58;;;;;;;7.30;4.20;;;;;;;26.17;47.67;101850.06;4989369;28;123283;-65
2022/07/13 06:32:25;;;;;;;5.63;4.07;;;;;;;26.23;47.29;101854.88;4972168;28;124256;-66
2022/07/13 06:34:52;;;;;;;6.55;3.70;;;;;;;26.31;47.16;101856.00;4989002;28;113997;-65
2022/07/13 06:37:26;;;;;;;5.22;4.20;;;;;;;26.37;47.32;101849.97;4971801;28;112697;-66
2022/07/13 06:40:12;;;;;;;6.78;4.30;;;;;;;26.45;47.31;101850.13;4991353;28;123963;-66
2022/07/13 06:42:43;;;;;;;7.43;4.15;;;;;;;26.52;46.99;101853.06;4989405;28;123575;-66
2022/07/13 06:45:10;;;;;;;6.22;4.20;;;;;;;26.58;47.07;101837.03;4992261;28;114354;-65
2022/07/13 06:47:38;;;;;;;6.07;4.32;;;;;;;26.66;46.63;101839.03;4990955;28;114747;-66
2022/07/13 06:50:06;;;;;;;4.78;3.83;;;;;;;26.74;46.68;101841.00;4969972;28;124006;-66
2022/07/13 06:52:33;;;;;;;6.72;4.72;;;;;;;26.83;46.40;101840.09;4981489;28;124535;-66
2022/07/13 06:55:00;;;;;;;6.38;4.53;;;;;;;26.88;46.13;101836.91;4991731;28;114893;-66
2022/07/13 06:57:28;;;;;;;6.47;4.20;;;;;;;26.96;46.37;101835.16;4989689;28;114643;-66
2022/07/13 06:59:55;;;;;;;8.98;4.80;;;;;;;27.06;46.25;101834.25;4989848;28;124313;-66
2022/07/13 07:02:22;;;;;;;9.02;4.22;;;;;;;27.15;45.84;101838.75;4973219;28;123693;-66
2022/07/13 07:04:49;;;;;;;6.57;4.28;;;;;;;27.24;45.60;101832.41;4991429;28;114446;-66
2022/07/13 07:07:17;;;;;;;7.68;4.60;;;;;;;27.33;45.48;101841.50;4971369;28;114123;-65
2022/07/13 07:09:44;;;;;;;5.72;4.70;;;;;;;27.41;45.39;101838.00;4989486;28;123778;-65
2022/07/13 07:12:11;;;;;;;7.20;3.83;;;;;;;27.48;45.42;101845.44;4989470;28;123695;-66
2022/07/13 07:14:38;;;;;;;7.78;4.07;;;;;;;27.54;45.05;101849.38;4971809;28;114782;-66
2022/07/13 07:17:05;;;;;;;5.32;4.18;;;;;;;27.62;44.86;101851.31;4987834;28;114147;-66
2022/07/13 07:19:33;;;;;;;6.80;4.32;;;;;;;27.66;44.57;101848.13;4972318;28;123129;-66
2022/07/13 07:22:00;;;;;;;6.20;3.70;;;;;;;27.68;44.18;101851.53;4991345;28;124628;-65
2022/07/13 07:24:28;;;;;;;6.82;3.85;;;;;;;27.71;44.23;101856.69;4968924;28;115090;-65
2022/07/13 07:26:56;;;;;;;5.75;4.10;;;;;;;27.77;44.03;101845.16;4969842;28;113296;-66
2022/07/13 07:29:23;;;;;;;5.00;3.85;;;;;;;27.84;44.05;101850.84;4989259;28;124459;-66
2022/07/13 07:31:50;;;;;;;4.28;3.55;;;;;;;27.90;44.03;101841.22;4973142;28;123441;-66
2022/07/13 07:34:17;;;;;;;7.68;4.28;;;;;;;27.97;44.21;101844.97;4991946;28;114316;-66
2022/07/13 07:36:44;;;;;;;8.90;3.90;;;;;;;28.02;43.96;101837.19;4989164;28;114467;-65
2022/07/13 07:39:13;;;;;;;5.53;4.00;;;;;;;28.07;43.88;101845.75;4988190;28;125101;-66
2022/07/13 07:41:41;;;;;;;7.05;4.47;;;;;;;28.11;43.79;101847.13;4988632;28;124722;-66
2022/07/13 07:44:08;;;;;;;5.75;3.80;;;;;;;28.14;43.55;101844.09;4989750;28;114930;-66
2022/07/13 07:46:35;;;;;;;6.20;3.88;;;;;;;28.24;43.79;101835.81;4988904;28;115253;-66
2022/07/13 07:49:05;;;;;;;4.97;3.63;;;;;;;28.38;43.90;101831.63;4988043;28;124299;-66
2022/07/13 07:51:32;;;;;;;5.47;3.90;;;;;;;28.56;43.82;101833.44;4989435;28;124591;-65
2022/07/13 07:54:20;;;;;;;6.78;3.83;;;;;;;28.72;43.53;101828.06;4973580;28;113617;-65
2022/07/13 07:56:48;;;;;;;5.93;3.95;;;;;;;28.84;43.22;101837.66;4973756;28;112915;-65
2022/07/13 07:59:15;;;;;;;8.93;3.95;;;;;;;28.93;43.18;101833.94;4989779;28;124134;-66
2022/07/13 08:01:42;;;;;;;5.60;3.72;;;;;;;29.01;43.05;101826.78;4991741;28;123628;-66
2022/07/13 08:04:10;;;;;;;4.53;3.20;;;;;;;29.06;43.04;101835.31;4988875;28;114475;-66
2022/07/13 08:06:38;;;;;;;8.38;3.40;;;;;;;29.15;42.95;101837.06;4970582;28;114624;-66
2022/07/13 08:09:05;;;;;;;6.35;3.75;;;;;;;29.23;42.75;101837.09;4986832;28;124124;-65
2022/07/13 08:11:32;;;;;;;5.38;3.40;;;;;;;29.32;42.30;101846.16;4987823;28;123991;-66
2022/07/13 08:14:00;;;;;;;4.68;3.55;;;;;;;29.37;42.45;101837.47;4988039;28;114208;-66
2022/07/13 08:16:28;;;;;;;6.63;3.40;;;;;;;29.44;42.03;101833.00;4988416;28;113778;-66
2022/07/13 08:18:55;;;;;;;5.63;2.80;;;;;;;29.52;42.35;101833.03;4987675;28;125274;-65
2022/07/13 08:21:42;;;;;;;6.70;3.40;;;;;;;29.66;42.58;101843.25;4972766;28;122914;-65
2022/07/13 08:24:09;;;;;;;5.07;3.35;;;;;;;29.80;42.40;101840.91;4988137;28;114422;-65
2022/07/13 08:26:37;;;;;;;7.30;3.15;;;;;;;29.98;42.54;101832.53;4989904;28;114272;-65
2022/07/13 08:29:05;;;;;;;6.07;3.28;;;;;;;30.12;42.20;101830.97;4971564;28;122971;-65
2022/07/13 08:31:32;;;;;;;7.40;3.75;;;;;;;30.21;42.19;101832.66;4972767;28;123075;-65
2022/07/13 08:39:31;;;;;;;5.43;2.80;;;;;;;30.31;41.75;101836.06;4987777;28;124368;-65
2022/07/13 08:41:59;;;;;;;7.60;3.28;;;;;;;30.39;41.89;101833.31;4988940;28;125250;-66
2022/07/13 08:44:27;;;;;;;5.28;3.50;;;;;;;30.47;41.81;101830.53;4987942;28;114573;-65
2022/07/13 08:46:56;;;;;;;6.88;3.72;;;;;;;30.54;41.38;101843.53;4987980;28;114082;-65
2022/07/13 08:49:25;;;;;;;8.30;3.90;;;;;;;30.56;41.09;101844.19;4989465;28;124417;-65
2022/07/13 08:51:52;;;;;;;5.28;3.50;;;;;;;30.57;41.32;101846.75;4970668;28;124306;-65
2022/07/13 08:54:19;;;;;;;5.00;3.45;;;;;;;30.60;41.11;101842.81;4973147;28;113092;-65
2022/07/13 08:56:47;;;;;;;6.00;3.70;;;;;;;30.62;41.35;101838.84;4969793;28;114218;-65
2022/07/13 08:59:14;;;;;;;5.22;4.10;;;;;;;30.64;41.06;101841.41;4971316;28;123070;-65
2022/07/13 09:01:41;;;;;;;5.32;3.83;;;;;;;30.62;40.99;101848.94;4989784;28;124391;-65
2022/07/13 09:04:15;;;;;;;5.57;3.83;;;;;;;30.59;41.36;101854.75;4988031;28;114264;-65
2022/07/13 09:06:47;;;;;;;12.07;4.60;;;;;;;30.60;40.79;101856.47;4987442;28;114243;-65
2022/07/13 09:09:31;;;;;;;4.28;3.88;;;;;;;30.58;41.06;101859.38;4987954;28;124949;-66
2022/07/13 09:12:21;;;;;;;8.20;4.05;;;;;;;30.59;41.25;101855.63;4983658;28;123717;-65
2022/07/13 09:15:00;;;;;;;6.07;4.00;;;;;;;30.61;41.47;101858.16;4987787;28;114648;-65
2022/07/13 09:17:31;;;;;;;5.63;3.95;;;;;;;30.63;41.30;101856.13;4973030;28;113637;-65
2022/07/13 09:20:01;;;;;;;8.40;4.00;;;;;;;30.66;41.52;101855.75;4988443;28;124670;-65
2022/07/13 09:22:28;;;;;;;5.85;3.80;;;;;;;30.72;41.23;101860.50;4954236;28;123978;-65
2022/07/13 09:24:56;;;;;;;5.90;3.58;;;;;;;30.79;41.94;101855.19;4985839;28;115335;-65
2022/07/13 09:27:23;;;;;;;5.00;3.95;;;;;;;30.89;41.97;101849.50;4972562;28;114676;-65
2022/07/13 09:29:50;;;;;;;6.25;3.58;;;;;;;31.02;42.02;101860.75;4988027;28;124736;-65
2022/07/13 09:32:17;;;;;;;6.00;3.78;;;;;;;31.14;41.59;101859.31;4970535;28;125130;-65
2022/07/13 09:34:52;;;;;;;6.57;3.90;;;;;;;31.24;40.80;101862.66;4991031;28;96811;-65
2022/07/13 09:37:20;;;;;;;4.85;3.33;;;;;;;31.24;40.12;101859.94;4971896;28;114853;-65
2022/07/13 09:40:11;;;;;;;4.30;2.70;;;;;;;31.20;39.72;101858.59;4987547;28;124220;-64
2022/07/13 09:42:41;;;;;;;5.28;3.03;;;;;;;31.20;39.73;101858.59;4990789;28;124499;-65
2022/07/13 09:47:57;;;;;;;4.18;2.70;;;;;;;31.24;39.77;101854.47;4992678;28;114015;-65
2022/07/13 09:50:36;;;;;;;4.57;2.45;;;;;;;31.29;39.59;101861.28;4962464;28;124066;-65
2022/07/13 09:53:27;;;;;;;3.80;2.38;;;;;;;31.35;39.24;101866.03;4962948;28;123036;-65
2022/07/13 09:55:57;;;;;;;4.68;2.50;;;;;;;31.40;38.91;101871.81;4981750;28;114350;-65
2022/07/13 09:58:36;;;;;;;5.30;2.75;;;;;;;31.41;39.06;101870.78;4992221;28;114590;-65
2022/07/13 10:01:04;;;;;;;5.07;2.75;;;;;;;31.44;38.41;101878.63;4961330;28;123164;-66
2022/07/13 10:03:31;;;;;;;3.70;2.22;;;;;;;31.44;38.56;101876.75;4990004;28;125562;-65
2022/07/13 10:06:01;;;;;;;4.75;2.20;;;;;;;31.48;38.19;101879.16;4992622;28;114653;-65
2022/07/13 10:08:28;;;;;;;4.00;2.50;;;;;;;31.49;37.62;101887.16;4992454;28;113870;-65
2022/07/13 10:10:55;;;;;;;3.70;2.20;;;;;;;31.47;37.77;101881.03;4992474;28;125200;-65
2022/07/13 10:13:23;;;;;;;3.47;2.38;;;;;;;31.44;37.38;101886.84;4990522;28;123958;-66
2022/07/13 10:15:51;;;;;;;4.90;2.50;;;;;;;31.39;37.06;101894.75;4989688;28;115226;-66
2022/07/13 10:18:22;;;;;;;4.88;2.38;;;;;;;31.36;37.46;101881.41;4990634;28;116041;-65
2022/07/13 10:21:00;;;;;;;3.42;2.47;;;;;;;31.33;36.89;101870.84;4992376;28;124104;-66
2022/07/13 10:23:34;;;;;;;2.97;2.30;;;;;;;31.34;37.23;101875.28;4989738;28;124443;-66
2022/07/13 10:26:24;;;;;;;3.58;2.08;;;;;;;31.39;37.33;101878.31;4989960;28;114234;-66
2022/07/13 10:29:06;;;;;;;2.95;2.30;;;;;;;31.46;36.99;101876.56;4990435;28;114074;-66
2022/07/13 10:31:36;;;;;;;5.97;1.92;;;;;;;31.55;37.01;101872.78;4988141;28;124156;-66
2022/07/13 10:34:05;;;;;;;5.03;2.25;;;;;;;31.68;36.85;101871.28;4989457;28;124192;-66
2022/07/13 10:36:47;;;;;;;4.25;2.30;;;;;;;31.80;36.17;101875.31;4989349;28;114378;-66
2022/07/13 10:39:15;;;;;;;3.05;1.95;;;;;;;31.88;36.31;101877.13;4970768;28;114570;-67
2022/07/13 10:41:58;;;;;;;2.95;2.10;;;;;;;31.95;36.23;101884.41;4991086;28;124834;-66
2022/07/13 10:44:42;;;;;;;2.58;2.00;;;;;;;31.99;35.47;101874.78;4971248;28;124221;-67
2022/07/13 10:47:12;;;;;;;5.53;2.07;;;;;;;32.02;35.69;101879.06;4990902;28;114169;-66
2022/07/13 10:49:46;;;;;;;3.40;1.73;;;;;;;32.00;34.85;101881.97;4973429;28;113483;-67
2022/07/13 10:52:23;;;;;;;3.63;1.80;;;;;;;31.96;34.78;101880.63;4986701;28;124084;-67
2022/07/13 10:55:11;;;;;;;;;;;;;;;31.94;36.40;101882.69;4977065;28;124448;-66
2022/07/13 10:57:42;;;;;;;4.32;1.90;;;;;;;31.97;35.56;101884.22;4989964;28;114120;-66
2022/07/13 11:00:25;;;;;;;3.15;2.13;;;;;;;31.99;36.02;101888.47;4985686;28;114050;-67
2022/07/13 11:03:06;;;;;;;4.80;2.25;;;;;;;32.01;35.65;101883.66;4990283;28;124629;-67
2022/07/13 11:05:35;;;;;;;3.25;2.10;;;;;;;32.05;36.00;101889.66;4989236;28;124548;-67
2022/07/13 11:08:15;;;;;;;3.80;2.58;;;;;;;32.06;36.01;101880.41;4991695;28;115187;-66
2022/07/13 11:10:43;;;;;;;3.45;2.58;;;;;;;32.12;36.11;101887.03;4991947;28;115021;-67
2022/07/13 11:13:14;;;;;;;4.32;2.25;;;;;;;32.21;36.30;101883.16;4991730;28;123956;-66
2022/07/13 11:15:53;;;;;;;3.65;2.80;;;;;;;32.31;35.91;101883.75;4988535;28;124135;-67
2022/07/13 11:18:31;;;;;;;3.65;2.53;;;;;;;32.36;36.14;101886.78;4987007;28;114145;-66
2022/07/13 11:21:01;;;;;;;3.92;2.22;;;;;;;32.39;35.19;101880.91;4978871;28;114080;-67
2022/07/13 11:26:49;;;;;;;2.45;1.90;;;;;;;32.37;35.12;101887.63;4983269;28;123957;-67
2022/07/13 11:29:17;;;;;;;4.03;1.77;;;;;;;32.45;35.16;101883.94;4969365;28;114076;-67
2022/07/13 11:31:45;;;;;;;2.70;1.98;;;;;;;32.56;34.95;101886.22;4961897;28;114212;-67
2022/07/13 11:34:12;;;;;;;4.50;1.85;;;;;;;32.67;34.62;101887.66;4988148;28;124588;-67
2022/07/13 11:36:41;;;;;;;3.03;1.65;;;;;;;32.74;33.84;101889.44;4988415;28;123677;-66